Time,TemperatureF,DewpointF,PressureIn,WindDirection,WindDirectionDegrees,WindSpeedMPH,WindSpeedGustMPH,Humidity,HourlyPrecipIn,Conditions,Clouds,dailyrainin,SoftwareType,DateUTC
2013-03-31 00:00:00,25.0,16.0,-100.00,North,-999,-999.0,-999.0,67,-99.99,,,-99.99,,2013-03-31 06:00:00,
2013-03-31 02:00:00,29.0,12.0,-100.00,North,-999,-999.0,-999.0,48,-99.99,,,0.00,,2013-03-31 08:00:00,
2013-03-31 03:00:00,27.0,9.0,-100.00,North,-999,-999.0,-999.0,47,-99.99,,,-99.99,,2013-03-31 09:00:00,
2013-03-31 04:00:00,24.0,12.0,-100.00,North,-999,-999.0,-999.0,60,-99.99,,,-99.99,,2013-03-31 10:00:00,
2013-03-31 05:00:00,22.0,12.0,-100.00,North,-999,-999.0,-999.0,65,-99.99,,,0.00,,2013-03-31 11:00:00,
2013-03-31 06:00:00,22.0,11.0,-100.00,North,-999,-999.0,-999.0,61,-99.99,,,-99.99,,2013-03-31 12:00:00,
2013-03-31 07:00:00,27.0,9.0,-100.00,North,-999,-999.0,-999.0,46,-99.99,,,-99.99,,2013-03-31 13:00:00,
2013-03-31 07:53:00,27.0,9.0,-100.00,North,-999,-999.0,-999.0,46,-99.99,,,-99.99,,2013-03-31 13:53:00,
2013-03-31 08:00:00,29.0,10.0,-100.00,North,-999,-999.0,-999.0,44,-99.99,,,0.00,,2013-03-31 14:00:00,
2013-03-31 09:00:00,34.0,11.0,-100.00,North,-999,-999.0,-999.0,37,-99.99,,,-99.99,,2013-03-31 15:00:00,
2013-03-31 10:00:00,40.0,12.0,-100.00,North,-999,-999.0,-999.0,32,-99.99,,,-99.99,,2013-03-31 16:00:00,
2013-03-31 11:00:00,42.0,14.0,-100.00,North,-999,-999.0,-999.0,31,-99.99,,,0.00,,2013-03-31 17:00:00,
2013-03-31 12:00:00,39.0,11.0,-100.00,North,-999,-999.0,-999.0,31,-99.99,,,-99.99,,2013-03-31 18:00:00,
2013-03-31 13:00:00,39.0,15.0,-100.00,North,-999,-999.0,-999.0,37,-99.99,,,-99.99,,2013-03-31 19:00:00,
2013-03-31 14:00:00,39.0,19.0,-100.00,North,-999,-999.0,-999.0,44,-99.99,,,0.00,,2013-03-31 20:00:00,
2013-03-31 15:00:00,38.0,18.0,-100.00,North,-999,-999.0,-999.0,44,-99.99,,,-99.99,,2013-03-31 21:00:00,
2013-03-31 16:00:00,35.0,20.0,-100.00,North,-999,-999.0,-999.0,55,-99.99,,,-99.99,,2013-03-31 22:00:00,
2013-03-31 17:00:00,34.0,23.0,-100.00,North,-999,-999.0,-999.0,64,-99.99,,,-99.99,,2013-03-31 23:00:00,
2013-03-31 18:00:00,36.0,24.0,-100.00,North,-999,-999.0,-999.0,63,-99.99,,,-99.99,,2013-04-01 00:00:00,
2013-03-31 19:00:00,30.0,19.0,-100.00,North,-999,-999.0,-999.0,65,-99.99,,,-99.99,,2013-04-01 01:00:00,
2013-03-31 20:00:00,26.0,19.0,-100.00,North,-999,-999.0,-999.0,76,-99.99,,,0.00,,2013-04-01 02:00:00,
2013-03-31 21:00:00,24.0,19.0,-100.00,North,-999,-999.0,-999.0,81,-99.99,,,-99.99,,2013-04-01 03:00:00,
2013-03-31 22:00:00,24.0,20.0,-100.00,North,-999,-999.0,-999.0,84,-99.99,,,-99.99,,2013-04-01 04:00:00,
2013-03-31 23:00:00,22.0,18.0,-100.00,North,-999,-999.0,-999.0,85,-99.99,,,0.00,,2013-04-01 05:00:00,